createdAt,value
2022-09-14T02:22:48.957Z,18.40
2022-09-14T02:27:52.533Z,18.50
2022-09-14T02:32:55.296Z,18.60
2022-09-14T02:37:57.940Z,18.60
2022-09-14T02:43:00.793Z,18.60
2022-09-14T02:48:03.636Z,18.70
2022-09-14T02:53:06.392Z,18.60
2022-09-14T02:58:09.113Z,18.70
2022-09-14T03:03:11.810Z,18.60
2022-09-14T03:08:14.557Z,18.60
2022-09-14T03:13:17.325Z,18.50
2022-09-14T03:18:19.990Z,18.40
2022-09-14T03:23:23.815Z,18.50
2022-09-14T03:28:26.537Z,18.40
2022-09-14T03:33:29.231Z,18.40
2022-09-14T03:38:32.074Z,18.50
2022-09-14T03:43:34.808Z,18.40
2022-09-14T03:48:37.600Z,18.40
2022-09-14T03:53:40.403Z,18.50
2022-09-14T03:58:43.262Z,18.50
2022-09-14T04:03:46.027Z,18.50
2022-09-14T04:08:48.807Z,18.50
2022-09-14T04:13:51.557Z,18.50
2022-09-14T04:18:54.248Z,18.50
2022-09-14T04:24:14.513Z,18.60
2022-09-14T04:29:18.208Z,18.70
2022-09-14T04:34:26.523Z,18.70
2022-09-14T04:39:29.313Z,18.60
2022-09-14T04:44:32.192Z,18.50
2022-09-14T04:49:35.109Z,18.30
2022-09-14T04:54:37.892Z,18.30
2022-09-14T04:59:40.643Z,18.30
2022-09-14T05:04:43.781Z,18.10
2022-09-14T05:09:46.447Z,18.00
2022-09-14T05:14:49.259Z,18.00
2022-09-14T05:19:52.153Z,18.10
2022-09-14T05:24:54.908Z,18.20
2022-09-14T05:29:57.615Z,18.20
2022-09-14T05:35:00.370Z,18.40
2022-09-14T05:40:03.241Z,18.10
2022-09-14T05:45:05.971Z,18.40
2022-09-14T05:50:09.632Z,17.80
2022-09-14T05:55:12.462Z,18.60
2022-09-14T06:00:15.514Z,19.50
2022-09-14T06:05:18.471Z,18.90
2022-09-14T06:10:21.384Z,19.00
2022-09-14T06:15:25.568Z,19.10
2022-09-14T06:20:28.308Z,19.30
2022-09-14T06:25:31.471Z,19.30
2022-09-14T06:30:35.137Z,19.20
2022-09-14T06:35:38.029Z,19.20
2022-09-14T06:40:40.833Z,19.30
2022-09-14T06:45:44.514Z,19.50
2022-09-14T06:50:47.246Z,19.80
2022-09-14T06:55:50.045Z,20.10
2022-09-14T07:00:52.738Z,20.10
2022-09-14T07:05:55.450Z,20.20
2022-09-14T07:10:58.903Z,20.30
2022-09-14T07:16:06.086Z,20.50
2022-09-14T07:21:09.168Z,20.60
2022-09-14T07:26:11.932Z,20.70
2022-09-14T07:31:14.723Z,20.90
2022-09-14T07:36:18.468Z,21.00
2022-09-14T07:41:21.283Z,21.30
2022-09-14T07:46:24.150Z,21.40
2022-09-14T07:51:26.977Z,21.60
2022-09-14T07:56:29.682Z,22.00
2022-09-14T08:01:32.450Z,22.50
2022-09-14T16:02:46.171Z,19.60
2022-09-14T16:07:49.490Z,19.20
2022-09-14T16:12:52.699Z,19.00
2022-09-14T16:17:56.734Z,18.90
2022-09-14T16:23:00.113Z,18.80
2022-09-14T16:28:02.977Z,18.90
2022-09-14T16:33:05.791Z,19.10
2022-09-14T16:38:08.454Z,19.20
2022-09-14T16:43:11.316Z,18.90
2022-09-14T16:48:14.071Z,18.80
2022-09-14T16:53:16.897Z,18.90
2022-09-14T16:58:20.530Z,18.90
2022-09-14T17:03:31.727Z,18.80
2022-09-14T17:08:38.732Z,18.90
2022-09-14T17:13:45.043Z,18.80
2022-09-14T17:18:50.451Z,18.80
2022-09-14T17:23:53.326Z,18.80
2022-09-14T17:28:56.154Z,18.80
2022-09-14T17:33:58.916Z,18.80
2022-09-14T17:39:02.327Z,18.80
2022-09-14T17:44:05.104Z,18.80
2022-09-14T17:49:10.500Z,19.00
2022-09-14T17:54:13.503Z,19.00
2022-09-14T17:59:18.035Z,19.00
2022-09-14T18:04:20.808Z,19.00
2022-09-14T18:09:24.401Z,19.00
2022-09-14T18:14:27.155Z,18.90
2022-09-14T18:19:30.517Z,18.70
2022-09-14T18:24:33.484Z,18.60
2022-09-14T18:29:36.351Z,18.70
2022-09-14T18:34:39.274Z,18.60
2022-09-14T18:39:42.509Z,18.60
2022-09-14T18:44:45.332Z,18.60
2022-09-14T18:49:49.516Z,18.50
2022-09-14T18:54:52.434Z,18.50
2022-09-14T18:59:56.517Z,18.40
2022-09-14T19:04:59.521Z,18.40
2022-09-14T19:10:02.242Z,18.40
2022-09-14T19:15:05.127Z,18.30
2022-09-14T19:20:10.999Z,18.30
2022-09-14T19:25:14.167Z,18.30
2022-09-14T19:30:16.877Z,18.30
2022-09-14T19:35:20.104Z,18.40
2022-09-14T19:40:24.262Z,18.30
2022-09-14T19:45:27.273Z,18.30
2022-09-14T19:50:30.335Z,18.20
2022-09-14T19:55:33.066Z,18.10
2022-09-14T20:00:35.977Z,18.00
2022-09-14T20:05:38.678Z,18.00
2022-09-14T20:10:41.401Z,17.90
2022-09-14T20:15:44.568Z,17.70
2022-09-14T20:20:47.385Z,17.60
2022-09-14T20:25:50.100Z,17.60
2022-09-14T20:30:52.792Z,17.60
2022-09-14T20:35:55.558Z,17.60
2022-09-14T20:40:58.978Z,17.60
2022-09-14T20:46:01.705Z,17.60
2022-09-14T20:51:05.561Z,17.60
2022-09-14T20:56:08.617Z,17.60
2022-09-14T21:01:11.354Z,17.50
2022-09-14T21:06:14.542Z,17.50
2022-09-14T21:11:17.705Z,17.50
2022-09-14T21:16:20.846Z,17.50
2022-09-14T21:21:23.671Z,17.40
2022-09-14T21:26:26.370Z,17.40
2022-09-14T21:31:30.028Z,17.50
2022-09-14T21:36:34.608Z,17.70
2022-09-14T21:41:37.359Z,17.80
2022-09-14T21:46:40.197Z,17.90
2022-09-14T21:51:43.100Z,18.00
2022-09-14T21:56:46.335Z,18.10
2022-09-14T22:01:49.252Z,18.10
2022-09-14T22:06:53.234Z,18.20
2022-09-14T22:11:55.951Z,18.30
2022-09-14T22:16:58.636Z,18.30
2022-09-14T22:22:02.362Z,18.40
2022-09-14T22:27:05.599Z,18.40
2022-09-14T22:32:14.499Z,18.30
2022-09-14T22:37:17.335Z,18.40
2022-09-14T22:42:20.331Z,18.40
2022-09-14T22:47:23.130Z,18.40
2022-09-14T22:52:25.959Z,18.40
2022-09-14T22:57:28.755Z,18.40
2022-09-14T23:02:31.800Z,18.50
2022-09-14T23:07:34.579Z,19.00
2022-09-14T23:12:37.274Z,18.20
2022-09-14T23:17:40.025Z,17.90
2022-09-14T23:22:42.739Z,17.50
2022-09-14T23:27:45.453Z,17.40
2022-09-14T23:32:48.201Z,17.30
2022-09-14T23:37:50.935Z,17.40
2022-09-14T23:42:53.687Z,17.50
2022-09-14T23:47:57.868Z,17.30
2022-09-14T23:53:05.290Z,17.50
2022-09-14T23:58:15.529Z,17.50
